Time;durP1;ratioP1;P1;durP2;ratioP2;P2;SDS_P1;SDS_P2;PMS_P1;PMS_P2;Temp;Humidity;BMP_temperature;BMP_pressure;BME280_temperature;BME280_humidity;BME280_pressure;Samples;Min_cycle;Max_cycle;Signal;HPM_P1;HPM_P2
2022/03/08 00:00:48;;;;;;;13.37;7.03;;;-4.00;77.80;;;;;;2105925;28;20190;-72
2022/03/08 00:01:49;;;;;;;17.30;8.60;;;-4.10;78.50;;;;;;2104889;28;20179;-72
2022/03/08 00:02:49;;;;;;;18.43;8.97;;;-4.00;78.90;;;;;;2106340;28;20642;-70
2022/03/08 00:03:50;;;;;;;17.37;9.10;;;-4.10;78.60;;;;;;2106225;28;20187;-72
2022/03/08 00:04:51;;;;;;;17.87;9.37;;;-4.00;78.80;;;;;;2106399;28;20182;-71
2022/03/08 00:05:52;;;;;;;15.20;7.90;;;-4.00;79.00;;;;;;2105082;28;20186;-71
2022/03/08 00:06:53;;;;;;;17.60;9.00;;;-4.10;78.80;;;;;;2097357;28;20806;-72
2022/03/08 00:07:55;;;;;;;14.70;8.63;;;-4.10;78.90;;;;;;2097221;28;20214;-71
2022/03/08 00:08:55;;;;;;;16.63;9.32;;;-4.10;78.90;;;;;;2097448;28;20207;-71
2022/03/08 00:09:56;;;;;;;16.27;9.10;;;-4.10;79.00;;;;;;2105569;28;20328;-71
2022/03/08 00:10:57;;;;;;;20.47;8.83;;;-4.10;79.60;;;;;;2105749;28;20186;-72
2022/03/08 00:11:58;;;;;;;17.30;8.37;;;-4.10;79.80;;;;;;2105587;28;20179;-71
2022/03/08 00:12:58;;;;;;;17.70;9.60;;;-4.20;80.00;;;;;;2105761;28;20201;-73
2022/03/08 00:13:59;;;;;;;17.87;8.60;;;-4.30;80.20;;;;;;2105682;28;20734;-71
2022/03/08 00:15:00;;;;;;;16.70;9.30;;;-4.30;80.80;;;;;;2106321;28;20198;-71
2022/03/08 00:16:01;;;;;;;15.93;8.43;;;-4.30;81.30;;;;;;2105058;28;20213;-73
2022/03/08 00:17:02;;;;;;;17.20;9.27;;;-4.30;81.50;;;;;;2097385;28;20187;-72
2022/03/08 00:18:04;;;;;;;15.13;8.95;;;-4.30;81.40;;;;;;2097362;28;20184;-71
2022/03/08 00:19:04;;;;;;;15.40;8.00;;;-4.30;81.90;;;;;;2097282;28;20172;-72
2022/03/08 00:20:08;;;;;;;16.70;9.27;;;-4.30;81.80;;;;;;2097334;28;20866;-71
2022/03/08 00:21:09;;;;;;;14.55;7.75;;;-4.30;82.10;;;;;;2097524;28;20219;-72
2022/03/08 00:22:09;;;;;;;16.67;8.00;;;-4.30;82.10;;;;;;2105626;28;20183;-71
2022/03/08 00:23:10;;;;;;;14.80;8.00;;;-4.40;81.80;;;;;;2105678;28;20839;-71
2022/03/08 00:24:12;;;;;;;15.93;8.20;;;-4.30;82.00;;;;;;2097186;28;20183;-71
2022/03/08 00:25:14;;;;;;;18.75;8.93;;;-4.40;82.20;;;;;;2096578;28;20184;-70
2022/03/08 00:26:15;;;;;;;17.00;9.32;;;-4.40;82.50;;;;;;2105565;28;20183;-70
2022/03/08 00:27:16;;;;;;;16.10;8.73;;;-4.40;82.80;;;;;;2105539;28;20175;-70
2022/03/08 00:28:17;;;;;;;16.60;8.50;;;-4.50;82.60;;;;;;2097259;28;20179;-72
2022/03/08 00:29:17;;;;;;;15.97;8.67;;;-4.40;82.50;;;;;;2105719;28;20257;-71
2022/03/08 00:30:23;;;;;;;18.67;8.97;;;-4.40;82.50;;;;;;2105490;28;20225;-71
2022/03/08 00:31:23;;;;;;;20.23;9.55;;;-4.50;82.40;;;;;;2105553;28;20309;-71
2022/03/08 00:32:25;;;;;;;15.00;7.57;;;-4.50;82.50;;;;;;2105518;28;20187;-72
2022/03/08 00:33:26;;;;;;;18.15;9.60;;;-4.40;82.50;;;;;;2097102;28;20630;-71
2022/03/08 00:34:27;;;;;;;15.15;8.15;;;-4.40;83.00;;;;;;2097213;28;20317;-72
2022/03/08 00:35:28;;;;;;;17.90;9.00;;;-4.40;82.40;;;;;;2096527;28;20571;-71
2022/03/08 00:36:28;;;;;;;19.03;8.30;;;-4.50;83.10;;;;;;2097038;28;20175;-71
2022/03/08 00:37:29;;;;;;;14.47;8.03;;;-4.60;83.60;;;;;;2105215;28;20655;-71
2022/03/08 00:38:30;;;;;;;19.97;9.27;;;-4.60;84.10;;;;;;2105898;28;20696;-71
2022/03/08 00:39:30;;;;;;;20.13;10.77;;;-4.60;84.20;;;;;;2105270;28;20179;-71
2022/03/08 00:40:31;;;;;;;16.67;8.53;;;-4.60;84.20;;;;;;2105527;28;20187;-72
2022/03/08 00:41:32;;;;;;;16.53;8.97;;;-4.60;84.10;;;;;;2105813;28;20175;-71
2022/03/08 00:42:32;;;;;;;14.33;8.80;;;-4.60;84.20;;;;;;2105425;28;20175;-71
2022/03/08 00:43:33;;;;;;;15.63;7.83;;;-4.60;83.80;;;;;;2103359;28;20179;-72
2022/03/08 00:44:34;;;;;;;15.57;8.27;;;-4.60;84.10;;;;;;2096877;28;20185;-71
2022/03/08 00:45:34;;;;;;;18.67;8.53;;;-4.70;84.40;;;;;;2096246;28;20187;-71
2022/03/08 00:46:35;;;;;;;18.07;9.10;;;-4.70;84.40;;;;;;2097575;28;20249;-72
2022/03/08 00:47:39;;;;;;;18.23;8.63;;;-4.70;84.40;;;;;;2097568;28;20664;-71
2022/03/08 00:48:39;;;;;;;15.07;8.45;;;-4.70;84.80;;;;;;2094914;28;20196;-71
2022/03/08 00:49:41;;;;;;;17.17;8.77;;;-4.70;84.80;;;;;;2093655;28;20200;-71
2022/03/08 00:50:41;;;;;;;16.30;8.25;;;-4.70;84.60;;;;;;2096789;28;20184;-72
2022/03/08 00:51:42;;;;;;;13.43;7.40;;;-4.70;85.10;;;;;;2096769;28;20187;-71
2022/03/08 00:52:43;;;;;;;18.00;9.20;;;-4.80;85.10;;;;;;2096859;28;20191;-71
2022/03/08 00:53:43;;;;;;;16.40;8.77;;;-4.80;85.00;;;;;;2089686;28;20205;-71
2022/03/08 00:54:44;;;;;;;16.40;8.97;;;-4.80;85.10;;;;;;2096770;28;20821;-72
2022/03/08 00:55:45;;;;;;;17.10;9.07;;;-4.80;85.30;;;;;;2096283;28;20184;-71
2022/03/08 00:56:46;;;;;;;18.43;9.33;;;-4.80;85.50;;;;;;2097094;28;20172;-72
2022/03/08 00:57:48;;;;;;;15.70;9.17;;;-4.80;85.60;;;;;;2096891;28;20269;-71
2022/03/08 00:58:49;;;;;;;18.92;9.27;;;-4.80;85.50;;;;;;2097805;28;20221;-71
2022/03/08 00:59:49;;;;;;;18.90;9.93;;;-4.90;85.80;;;;;;2097613;28;20180;-72
2022/03/08 01:00:50;;;;;;;17.73;9.83;;;-4.90;86.10;;;;;;2097325;28;20193;-72
2022/03/08 01:01:51;;;;;;;15.80;8.60;;;-4.80;86.00;;;;;;2098611;28;20261;-71
2022/03/08 01:02:52;;;;;;;18.45;9.55;;;-4.80;86.00;;;;;;2099445;28;20180;-71
2022/03/08 01:03:53;;;;;;;16.70;7.75;;;-4.80;85.80;;;;;;2098601;28;20306;-71
2022/03/08 01:04:53;;;;;;;18.97;8.87;;;-4.80;85.80;;;;;;2098333;28;20682;-73
2022/03/08 01:05:54;;;;;;;16.97;7.97;;;-4.80;85.90;;;;;;2096588;28;20225;-71
2022/03/08 01:06:55;;;;;;;17.77;9.00;;;-4.90;85.70;;;;;;2096734;28;20194;-71
2022/03/08 01:07:56;;;;;;;17.60;8.53;;;-4.80;86.00;;;;;;2097554;28;20190;-73
2022/03/08 01:08:57;;;;;;;16.30;8.65;;;-4.90;86.20;;;;;;2096669;28;20192;-71
2022/03/08 01:09:57;;;;;;;14.37;8.27;;;-4.90;86.00;;;;;;2096842;28;20219;-71
2022/03/08 01:10:58;;;;;;;15.33;7.67;;;-4.90;85.90;;;;;;2097513;28;20443;-73
2022/03/08 01:11:59;;;;;;;19.43;8.67;;;-4.90;86.00;;;;;;2097447;28;20183;-71
2022/03/08 01:13:00;;;;;;;16.83;8.60;;;-4.90;86.10;;;;;;2097361;28;20172;-71
2022/03/08 01:14:01;;;;;;;15.82;8.23;;;-4.90;86.30;;;;;;2096813;28;20301;-71
2022/03/08 01:15:04;;;;;;;18.50;9.43;;;-4.90;86.40;;;;;;2096748;28;20225;-71
2022/03/08 01:16:04;;;;;;;18.15;9.82;;;-5.00;87.60;;;;;;2096320;28;20168;-72
2022/03/08 01:17:05;;;;;;;17.73;8.33;;;-5.00;88.10;;;;;;2088514;28;20176;-71
2022/03/08 01:18:06;;;;;;;17.53;8.83;;;-5.10;88.00;;;;;;2096754;28;20184;-72
2022/03/08 01:19:07;;;;;;;18.37;8.67;;;-5.10;88.50;;;;;;2105054;28;20182;-72
2022/03/08 01:20:10;;;;;;;16.90;8.63;;;-5.10;88.70;;;;;;2096737;28;20188;-71
2022/03/08 01:21:14;;;;;;;19.23;8.43;;;-5.10;88.60;;;;;;2088698;28;20179;-71
2022/03/08 01:22:15;;;;;;;16.42;8.55;;;-5.10;88.90;;;;;;2089076;28;20191;-71
2022/03/08 01:23:16;;;;;;;16.67;8.33;;;-5.10;88.50;;;;;;2096764;28;20180;-71
2022/03/08 01:24:16;;;;;;;18.30;8.67;;;-5.10;88.40;;;;;;2097417;28;20184;-72
2022/03/08 01:25:20;;;;;;;17.97;9.17;;;-5.10;88.20;;;;;;2096782;28;20171;-71
2022/03/08 01:26:21;;;;;;;19.88;8.85;;;-5.10;88.10;;;;;;2097424;28;20543;-71
2022/03/08 01:27:22;;;;;;;17.23;8.63;;;-5.20;88.60;;;;;;2097323;28;20275;-71
2022/03/08 01:28:23;;;;;;;17.52;8.32;;;-5.20;88.90;;;;;;2096902;28;20220;-71
2022/03/08 01:29:23;;;;;;;15.23;8.07;;;-5.20;89.20;;;;;;2096837;28;20237;-71
2022/03/08 01:30:25;;;;;;;17.33;9.13;;;-5.20;89.20;;;;;;2096597;28;20211;-71
2022/03/08 01:31:26;;;;;;;19.23;9.25;;;-5.20;89.20;;;;;;2096778;28;20179;-71
2022/03/08 01:32:27;;;;;;;17.55;8.85;;;-5.20;89.50;;;;;;2097571;28;20229;-72
2022/03/08 01:33:28;;;;;;;16.00;8.10;;;-5.20;89.30;;;;;;2096709;28;20179;-71
2022/03/08 01:34:28;;;;;;;19.07;9.07;;;-5.20;89.40;;;;;;2096815;28;20318;-72
2022/03/08 01:35:29;;;;;;;16.40;8.83;;;-5.20;89.40;;;;;;2096091;28;20206;-71
2022/03/08 01:36:30;;;;;;;17.87;8.30;;;-5.30;89.40;;;;;;2097490;28;20176;-71
2022/03/08 01:37:31;;;;;;;16.80;8.37;;;-5.30;89.70;;;;;;2087896;28;20179;-72
2022/03/08 01:38:32;;;;;;;17.90;9.40;;;-5.30;89.70;;;;;;2088470;28;20238;-71
2022/03/08 01:39:33;;;;;;;18.50;8.80;;;-5.40;90.50;;;;;;2096625;28;20168;-72
2022/03/08 01:40:33;;;;;;;17.13;9.00;;;-5.30;90.70;;;;;;2097417;28;20183;-70
2022/03/08 01:41:35;;;;;;;19.57;9.57;;;-5.40;90.30;;;;;;2096610;28;20179;-71
2022/03/08 01:42:36;;;;;;;15.35;8.25;;;-5.40;90.50;;;;;;2096800;28;20218;-71
2022/03/08 01:43:37;;;;;;;16.03;9.07;;;-5.40;90.50;;;;;;2097275;28;20649;-71
2022/03/08 01:44:43;;;;;;;17.50;9.53;;;-5.30;90.50;;;;;;2096651;28;20267;-71
2022/03/08 01:45:43;;;;;;;17.05;8.25;;;-5.40;90.50;;;;;;2096066;28;20816;-71
2022/03/08 01:46:44;;;;;;;19.70;9.00;;;-5.30;90.20;;;;;;2097366;28;20262;-71
2022/03/08 01:47:45;;;;;;;16.33;8.57;;;-5.30;90.20;;;;;;2097242;28;20190;-71
2022/03/08 01:48:46;;;;;;;18.10;8.57;;;-5.30;90.20;;;;;;2096441;28;20449;-71
2022/03/08 01:49:49;;;;;;;17.00;8.30;;;-5.30;90.10;;;;;;2096540;28;20688;-72
2022/03/08 01:50:50;;;;;;;18.67;8.90;;;-5.30;90.30;;;;;;2088561;28;20185;-71
2022/03/08 01:51:51;;;;;;;18.67;9.13;;;-5.30;90.20;;;;;;2088414;28;20201;-70
2022/03/08 01:52:53;;;;;;;18.47;9.43;;;-5.30;90.10;;;;;;2088393;28;20929;-71
2022/03/08 01:53:54;;;;;;;17.45;8.48;;;-5.30;90.10;;;;;;2096638;28;20301;-71
2022/03/08 01:54:54;;;;;;;19.13;9.80;;;-5.30;90.00;;;;;;2098102;28;20192;-71
2022/03/08 01:55:55;;;;;;;15.33;8.17;;;-5.30;90.20;;;;;;2097619;28;20706;-72
2022/03/08 01:56:56;;;;;;;18.73;8.03;;;-5.30;90.20;;;;;;2098333;28;20175;-71
2022/03/08 01:57:56;;;;;;;20.00;9.20;;;-5.30;90.10;;;;;;2106820;28;20208;-71
2022/03/08 01:58:57;;;;;;;20.73;9.53;;;-5.30;90.00;;;;;;2106447;28;20198;-72
2022/03/08 01:59:58;;;;;;;17.67;9.60;;;-5.30;90.30;;;;;;2098288;28;20194;-71
2022/03/08 02:00:58;;;;;;;16.40;8.30;;;-5.40;90.50;;;;;;2098082;28;20203;-71
2022/03/08 02:01:59;;;;;;;18.90;9.00;;;-5.40;90.50;;;;;;2090039;28;20661;-72
2022/03/08 02:03:01;;;;;;;17.80;8.93;;;-5.40;90.50;;;;;;2089814;28;20640;-71
2022/03/08 02:04:01;;;;;;;22.42;9.95;;;-5.40;90.40;;;;;;2090029;28;20665;-71
2022/03/08 02:05:02;;;;;;;20.37;9.60;;;-5.40;90.50;;;;;;2089721;28;20195;-71
2022/03/08 02:06:04;;;;;;;18.08;9.55;;;-5.40;90.60;;;;;;2097908;28;20680;-71
2022/03/08 02:07:05;;;;;;;14.23;8.23;;;-5.40;90.50;;;;;;2097991;28;20194;-71
2022/03/08 02:08:05;;;;;;;18.20;8.90;;;-5.40;90.50;;;;;;2098053;28;20269;-71
2022/03/08 02:09:06;;;;;;;14.33;8.27;;;-5.40;90.50;;;;;;2098146;28;20179;-71
2022/03/08 02:10:08;;;;;;;16.53;9.57;;;-5.40;90.30;;;;;;2098175;28;20203;-71
2022/03/08 02:11:10;;;;;;;15.52;7.88;;;-5.40;90.10;;;;;;2090111;28;20207;-71
2022/03/08 02:12:11;;;;;;;16.52;8.25;;;-5.30;90.10;;;;;;2098155;28;20227;-70
2022/03/08 02:13:12;;;;;;;16.52;8.52;;;-5.30;89.90;;;;;;2098068;28;20693;-71
2022/03/08 02:14:17;;;;;;;16.77;8.57;;;-5.40;90.00;;;;;;2098245;28;20245;-71
2022/03/08 02:15:28;;;;;;;19.15;9.43;;;-5.40;90.00;;;;;;2097535;28;20172;-71
2022/03/08 02:16:29;;;;;;;14.60;8.10;;;-5.30;90.10;;;;;;2098384;28;20558;-71
2022/03/08 02:17:30;;;;;;;20.63;8.98;;;-5.40;90.20;;;;;;2097922;28;20187;-71
2022/03/08 02:18:31;;;;;;;13.70;8.73;;;-5.40;90.20;;;;;;2098298;28;20195;-71
2022/03/08 02:19:32;;;;;;;15.52;8.32;;;-5.40;90.20;;;;;;2098821;28;20178;-72
2022/03/08 02:20:32;;;;;;;14.43;9.07;;;-5.40;90.50;;;;;;2098901;28;20570;-71
2022/03/08 02:21:35;;;;;;;17.13;7.93;;;-5.40;90.50;;;;;;2098177;28;20660;-71
2022/03/08 02:22:36;;;;;;;18.13;9.63;;;-5.40;90.50;;;;;;2098233;28;20184;-71
2022/03/08 02:23:36;;;;;;;17.13;9.27;;;-5.40;90.50;;;;;;2098024;28;20221;-71
2022/03/08 02:24:37;;;;;;;16.77;7.30;;;-5.40;90.50;;;;;;2098063;28;20228;-71
2022/03/08 02:25:38;;;;;;;17.27;9.00;;;-5.50;90.40;;;;;;2089024;28;20234;-71
2022/03/08 02:26:39;;;;;;;19.17;8.40;;;-5.50;90.50;;;;;;2089994;28;20250;-72
2022/03/08 02:27:46;;;;;;;16.47;8.27;;;-5.50;90.60;;;;;;2106316;28;20251;-71
2022/03/08 02:28:47;;;;;;;17.10;9.38;;;-5.50;90.60;;;;;;2105711;28;20197;-71
2022/03/08 02:29:48;;;;;;;18.27;8.93;;;-5.50;90.80;;;;;;2098499;28;20817;-71
2022/03/08 02:30:49;;;;;;;15.90;9.45;;;-5.50;90.90;;;;;;2098225;28;20191;-71
2022/03/08 02:31:50;;;;;;;15.93;8.27;;;-5.50;91.00;;;;;;2097999;28;20175;-71
2022/03/08 02:32:52;;;;;;;19.20;10.20;;;-5.50;90.80;;;;;;2098684;28;20175;-71
2022/03/08 02:33:53;;;;;;;16.52;8.73;;;-5.50;90.90;;;;;;2098372;28;20172;-71
2022/03/08 02:34:53;;;;;;;14.30;8.03;;;-5.60;91.10;;;;;;2106284;28;20223;-71
2022/03/08 02:35:54;;;;;;;15.73;8.37;;;-5.60;91.20;;;;;;2105570;28;20248;-72
2022/03/08 02:37:11;;;;;;;16.73;8.87;;;-5.70;91.20;;;;;;2106150;28;20212;-71
2022/03/08 02:38:12;;;;;;;18.50;9.13;;;-5.70;91.30;;;;;;2096021;28;20400;-71
2022/03/08 02:39:12;;;;;;;17.23;8.77;;;-5.70;91.20;;;;;;2090695;28;20181;-71
2022/03/08 02:40:17;;;;;;;14.77;8.17;;;-5.70;91.30;;;;;;2090251;28;20187;-71
2022/03/08 02:41:18;;;;;;;19.05;8.82;;;-5.70;91.30;;;;;;2081376;28;20196;-71
2022/03/08 02:42:19;;;;;;;15.90;8.10;;;-5.60;91.10;;;;;;2081512;28;20199;-71
2022/03/08 02:43:19;;;;;;;16.13;8.43;;;-5.70;91.00;;;;;;2090384;28;20191;-71
2022/03/08 02:44:20;;;;;;;13.80;7.13;;;-5.60;91.10;;;;;;2089581;28;20858;-72
2022/03/08 02:45:21;;;;;;;17.70;8.70;;;-5.60;91.00;;;;;;2080905;28;20564;-71
2022/03/08 02:46:22;;;;;;;15.90;8.68;;;-5.60;90.90;;;;;;2089520;28;20255;-71
2022/03/08 02:47:23;;;;;;;15.47;8.60;;;-5.60;90.80;;;;;;2089579;28;20195;-71
2022/03/08 02:48:28;;;;;;;16.67;8.53;;;-5.60;90.80;;;;;;2089559;28;20206;-71
2022/03/08 02:49:28;;;;;;;16.88;9.48;;;-5.60;90.90;;;;;;2089652;28;20837;-71
2022/03/08 02:50:29;;;;;;;15.93;8.50;;;-5.60;91.20;;;;;;2081167;28;20280;-71
2022/03/08 02:51:30;;;;;;;19.08;8.60;;;-5.60;90.50;;;;;;2089577;28;20185;-71
2022/03/08 02:52:31;;;;;;;17.20;8.53;;;-5.70;90.80;;;;;;2090207;28;20547;-71
2022/03/08 02:53:31;;;;;;;17.00;7.77;;;-5.70;91.10;;;;;;2090246;28;20180;-71
2022/03/08 02:54:32;;;;;;;18.67;8.83;;;-5.70;91.20;;;;;;2090295;28;20180;-70
2022/03/08 02:55:35;;;;;;;16.27;8.60;;;-5.70;91.10;;;;;;2089027;28;20595;-71
2022/03/08 02:56:36;;;;;;;18.02;8.98;;;-5.70;91.20;;;;;;2089640;28;20180;-71
2022/03/08 02:57:38;;;;;;;13.85;8.02;;;-5.70;91.20;;;;;;2090306;28;20204;-71
2022/03/08 02:58:39;;;;;;;15.50;8.27;;;-5.70;90.90;;;;;;2089465;28;20605;-71
2022/03/08 02:59:40;;;;;;;15.43;8.37;;;-5.70;91.00;;;;;;2089485;28;20187;-71
2022/03/08 03:00:41;;;;;;;14.33;7.50;;;-5.70;91.10;;;;;;2090078;28;20180;-71
2022/03/08 03:01:41;;;;;;;15.95;7.78;;;-5.70;91.10;;;;;;2089643;28;20178;-71
2022/03/08 03:02:43;;;;;;;17.03;7.77;;;-5.70;90.90;;;;;;2081325;28;20185;-71
2022/03/08 03:03:43;;;;;;;16.50;8.30;;;-5.70;90.70;;;;;;2089465;28;20670;-71
2022/03/08 03:04:45;;;;;;;16.10;8.43;;;-5.80;90.60;;;;;;2093076;28;20396;-72
2022/03/08 03:05:46;;;;;;;19.48;8.10;;;-5.70;90.70;;;;;;2087983;28;20190;-71
2022/03/08 03:06:47;;;;;;;16.57;8.30;;;-5.80;90.60;;;;;;2089449;28;20180;-71
2022/03/08 03:07:48;;;;;;;16.00;7.07;;;-5.80;90.40;;;;;;2089347;28;20182;-71
2022/03/08 03:08:48;;;;;;;11.53;7.47;;;-5.80;90.40;;;;;;2081433;28;20285;-71
2022/03/08 03:09:50;;;;;;;14.70;7.67;;;-5.80;90.40;;;;;;2089217;28;20639;-72
2022/03/08 03:10:50;;;;;;;15.07;8.18;;;-5.80;90.40;;;;;;2097749;28;20203;-71
2022/03/08 03:11:51;;;;;;;14.20;6.93;;;-5.80;90.80;;;;;;2089928;28;20261;-72
2022/03/08 03:12:54;;;;;;;16.43;7.93;;;-5.80;90.90;;;;;;2097725;28;20179;-71
2022/03/08 03:13:55;;;;;;;16.33;8.48;;;-5.80;90.80;;;;;;2097263;28;20207;-71
2022/03/08 03:14:55;;;;;;;14.47;7.80;;;-5.80;90.70;;;;;;2090197;28;20191;-71
2022/03/08 03:15:56;;;;;;;13.80;6.73;;;-5.80;90.40;;;;;;2096562;28;20630;-72
2022/03/08 03:16:57;;;;;;;13.70;7.10;;;-5.80;90.40;;;;;;2096846;28;20206;-71
2022/03/08 03:17:59;;;;;;;14.83;7.87;;;-5.80;90.30;;;;;;2097565;28;20178;-71
2022/03/08 03:19:00;;;;;;;16.98;7.97;;;-5.80;90.20;;;;;;2089300;28;20559;-71
2022/03/08 03:20:02;;;;;;;14.47;7.30;;;-5.80;90.00;;;;;;2089261;28;20182;-71
2022/03/08 03:21:03;;;;;;;13.02;6.97;;;-5.80;90.00;;;;;;2089261;28;20574;-73
2022/03/08 03:22:04;;;;;;;14.70;7.27;;;-5.80;89.90;;;;;;2089162;28;20190;-71
2022/03/08 03:23:05;;;;;;;15.68;7.53;;;-5.80;90.00;;;;;;2090121;28;20187;-71
2022/03/08 03:24:06;;;;;;;16.93;7.63;;;-5.80;89.90;;;;;;2089900;28;20214;-72
2022/03/08 03:25:07;;;;;;;13.43;7.43;;;-5.80;89.60;;;;;;2089772;28;20337;-71
2022/03/08 03:26:08;;;;;;;14.80;7.40;;;-5.80;89.30;;;;;;2089034;28;20179;-71
2022/03/08 03:27:09;;;;;;;13.77;7.03;;;-5.80;89.30;;;;;;2089268;28;20281;-71
2022/03/08 03:28:09;;;;;;;13.13;6.70;;;-5.80;89.30;;;;;;2089745;28;20183;-71
2022/03/08 03:29:10;;;;;;;15.33;7.77;;;-5.80;89.30;;;;;;2090032;28;20262;-71
2022/03/08 03:30:18;;;;;;;13.93;7.93;;;-5.90;89.60;;;;;;2097335;28;20301;-71
2022/03/08 03:31:18;;;;;;;12.90;6.47;;;-5.90;90.00;;;;;;2089299;28;20177;-71
2022/03/08 03:32:19;;;;;;;12.13;6.57;;;-5.80;90.10;;;;;;2081017;28;20247;-71
2022/03/08 03:33:20;;;;;;;14.10;7.13;;;-5.80;89.90;;;;;;2089353;28;20179;-70
2022/03/08 03:34:21;;;;;;;14.03;7.67;;;-5.80;90.00;;;;;;2089836;28;20218;-71
2022/03/08 03:35:21;;;;;;;14.43;6.53;;;-5.80;90.00;;;;;;2089349;28;20183;-71
2022/03/08 03:36:22;;;;;;;14.53;8.40;;;-5.90;90.20;;;;;;2089867;28;20179;-71
2022/03/08 03:37:23;;;;;;;12.97;7.33;;;-5.90;90.40;;;;;;2090013;28;20176;-71
2022/03/08 03:38:24;;;;;;;11.90;6.57;;;-5.90;90.40;;;;;;2097444;28;20244;-71
2022/03/08 03:39:25;;;;;;;12.30;7.23;;;-5.90;90.30;;;;;;2097551;28;20179;-71
2022/03/08 03:40:25;;;;;;;14.47;7.40;;;-5.80;90.30;;;;;;2097474;28;20256;-70
2022/03/08 03:41:26;;;;;;;11.90;6.07;;;-5.90;90.20;;;;;;2097705;28;20180;-71
2022/03/08 03:42:27;;;;;;;12.97;6.63;;;-5.90;90.20;;;;;;2089799;28;20249;-71
2022/03/08 03:43:27;;;;;;;16.30;7.13;;;-5.80;90.10;;;;;;2097612;28;20183;-71
2022/03/08 03:44:28;;;;;;;12.87;7.30;;;-5.80;89.70;;;;;;2097570;28;20179;-71
2022/03/08 03:45:29;;;;;;;14.60;7.00;;;-5.80;89.60;;;;;;2089277;28;20745;-71
2022/03/08 03:46:29;;;;;;;15.03;7.60;;;-5.80;89.80;;;;;;2089881;28;20183;-70
2022/03/08 03:47:30;;;;;;;15.17;8.03;;;-5.80;90.00;;;;;;2097502;28;20605;-71
2022/03/08 03:48:32;;;;;;;15.43;7.37;;;-5.80;90.10;;;;;;2097341;28;20207;-71
2022/03/08 03:49:32;;;;;;;14.70;6.65;;;-5.80;90.40;;;;;;2097330;28;20185;-71
2022/03/08 03:50:33;;;;;;;14.30;7.10;;;-5.80;90.40;;;;;;2097407;28;20215;-71
2022/03/08 03:51:34;;;;;;;13.30;7.53;;;-5.80;90.50;;;;;;2089402;28;20184;-71
2022/03/08 03:52:35;;;;;;;11.33;6.17;;;-5.80;90.40;;;;;;2082420;28;20187;-72
2022/03/08 03:53:36;;;;;;;16.13;7.22;;;-5.70;90.50;;;;;;2089641;28;20559;-71
2022/03/08 03:54:36;;;;;;;13.30;6.23;;;-5.70;90.30;;;;;;2090526;28;20195;-72
2022/03/08 03:55:37;;;;;;;13.50;6.87;;;-5.80;90.20;;;;;;2089528;28;20188;-72
2022/03/08 03:56:38;;;;;;;12.67;6.37;;;-5.70;90.20;;;;;;2089276;28;20194;-71
2022/03/08 03:57:38;;;;;;;18.13;7.27;;;-5.70;90.10;;;;;;2089128;28;20177;-72
2022/03/08 03:58:40;;;;;;;13.13;6.60;;;-5.70;89.90;;;;;;2089795;28;20206;-71
2022/03/08 03:59:40;;;;;;;13.93;6.85;;;-5.70;90.00;;;;;;2089673;28;20230;-71
2022/03/08 04:00:41;;;;;;;13.67;7.37;;;-5.70;90.30;;;;;;2097497;28;20221;-71
2022/03/08 04:01:42;;;;;;;13.27;6.23;;;-5.80;90.40;;;;;;2097391;28;20619;-71
2022/03/08 04:02:44;;;;;;;14.47;6.37;;;-5.70;90.40;;;;;;2097519;28;20183;-72
2022/03/08 04:03:44;;;;;;;11.30;5.85;;;-5.70;90.10;;;;;;2097132;28;20224;-71
2022/03/08 04:04:45;;;;;;;11.97;7.23;;;-5.70;90.30;;;;;;2088792;28;20198;-71
2022/03/08 04:05:46;;;;;;;13.40;6.63;;;-5.70;90.20;;;;;;2088521;28;20179;-71
2022/03/08 04:06:47;;;;;;;14.37;7.23;;;-5.70;90.70;;;;;;2097444;28;20174;-71
2022/03/08 04:07:47;;;;;;;11.83;5.77;;;-5.70;90.10;;;;;;2097139;28;20190;-71
2022/03/08 04:08:48;;;;;;;12.97;6.33;;;-5.80;90.00;;;;;;2097195;28;20336;-71
2022/03/08 04:09:49;;;;;;;13.60;6.50;;;-5.80;89.60;;;;;;2096906;28;20191;-71
2022/03/08 04:10:51;;;;;;;11.27;6.28;;;-5.70;89.50;;;;;;2089518;28;20524;-71
2022/03/08 04:11:52;;;;;;;13.20;6.57;;;-5.80;89.10;;;;;;2089354;28;20210;-71
2022/03/08 04:12:52;;;;;;;11.63;6.17;;;-5.80;88.50;;;;;;2089525;28;20560;-71
2022/03/08 04:13:53;;;;;;;12.87;6.80;;;-5.70;88.40;;;;;;2096933;28;20309;-71
2022/03/08 04:14:54;;;;;;;11.40;6.33;;;-5.70;87.80;;;;;;2097210;28;20186;-71
2022/03/08 04:15:54;;;;;;;12.97;6.43;;;-5.70;87.50;;;;;;2088680;28;20176;-71
2022/03/08 04:16:55;;;;;;;13.63;7.23;;;-5.60;86.90;;;;;;2089208;28;20190;-71
2022/03/08 04:17:56;;;;;;;11.60;6.57;;;-5.70;86.50;;;;;;2089332;28;20183;-71
2022/03/08 04:18:56;;;;;;;12.30;6.60;;;-5.60;86.00;;;;;;2089393;28;20713;-71
2022/03/08 04:19:57;;;;;;;14.60;6.97;;;-5.70;85.90;;;;;;2089305;28;20635;-71
2022/03/08 04:20:57;;;;;;;12.80;6.67;;;-5.70;86.40;;;;;;2089349;28;20191;-71
2022/03/08 04:21:58;;;;;;;13.93;6.50;;;-5.70;86.30;;;;;;2089182;28;20196;-71
2022/03/08 04:22:59;;;;;;;11.43;5.70;;;-5.70;86.30;;;;;;2097042;28;20197;-71
2022/03/08 04:23:59;;;;;;;10.63;5.90;;;-5.70;86.30;;;;;;2096883;28;20193;-71
2022/03/08 04:25:00;;;;;;;10.33;6.03;;;-5.70;86.40;;;;;;2096891;28;20176;-70
2022/03/08 04:26:01;;;;;;;11.63;6.50;;;-5.70;86.50;;;;;;2088685;28;20185;-71
2022/03/08 04:27:04;;;;;;;13.03;5.93;;;-5.70;86.00;;;;;;2096977;28;20205;-71
2022/03/08 04:28:05;;;;;;;10.75;6.68;;;-5.70;85.70;;;;;;2096784;28;20182;-71
2022/03/08 04:29:06;;;;;;;14.48;6.05;;;-5.60;85.20;;;;;;2097052;28;20191;-71
2022/03/08 04:30:09;;;;;;;13.27;6.53;;;-5.60;85.20;;;;;;2097243;28;20305;-70
2022/03/08 04:31:10;;;;;;;11.35;6.40;;;-5.70;85.30;;;;;;2096674;28;20688;-71
2022/03/08 04:32:11;;;;;;;10.07;6.00;;;-5.70;85.80;;;;;;2089077;28;20182;-71
2022/03/08 04:33:11;;;;;;;14.13;6.20;;;-5.70;85.50;;;;;;2097182;28;20174;-70
2022/03/08 04:34:12;;;;;;;12.93;6.43;;;-5.70;85.30;;;;;;2089678;28;20219;-71
2022/03/08 04:35:13;;;;;;;11.87;5.53;;;-5.70;85.40;;;;;;2096538;28;20173;-70
2022/03/08 04:36:14;;;;;;;10.38;6.22;;;-5.70;85.50;;;;;;2097161;28;20619;-71
2022/03/08 04:37:15;;;;;;;12.43;6.10;;;-5.70;85.50;;;;;;2097085;28;20232;-71
2022/03/08 04:38:15;;;;;;;12.40;6.40;;;-5.70;85.50;;;;;;2097317;28;20232;-71
2022/03/08 04:39:16;;;;;;;9.00;4.90;;;-5.50;84.90;;;;;;2089572;28;20176;-71
2022/03/08 04:40:17;;;;;;;9.37;5.77;;;-5.50;84.70;;;;;;2089722;28;20187;-71
2022/03/08 04:41:18;;;;;;;14.53;6.27;;;-5.50;84.20;;;;;;2094942;28;20191;-71
2022/03/08 04:42:18;;;;;;;13.33;6.73;;;-5.40;83.90;;;;;;2097188;28;20188;-71
2022/03/08 04:43:19;;;;;;;12.20;6.77;;;-5.40;84.10;;;;;;2097098;28;20192;-71
2022/03/08 04:44:20;;;;;;;10.87;6.10;;;-5.50;84.00;;;;;;2097124;28;20187;-71
2022/03/08 04:45:21;;;;;;;12.53;5.97;;;-5.50;84.30;;;;;;2096566;28;20650;-71
2022/03/08 04:46:22;;;;;;;10.60;5.90;;;-5.50;84.50;;;;;;2097171;28;20860;-70
2022/03/08 04:47:22;;;;;;;11.20;5.33;;;-5.50;84.20;;;;;;2096852;28;20187;-71
2022/03/08 04:48:23;;;;;;;11.27;6.23;;;-5.50;84.20;;;;;;2088826;28;20210;-71
2022/03/08 04:49:25;;;;;;;12.93;7.05;;;-5.50;84.90;;;;;;2089088;28;20261;-71
2022/03/08 04:50:25;;;;;;;9.38;5.18;;;-5.50;85.30;;;;;;2097878;28;20222;-71
2022/03/08 04:51:26;;;;;;;11.60;6.63;;;-5.50;85.40;;;;;;2097101;28;20179;-71
2022/03/08 04:52:27;;;;;;;8.80;5.47;;;-5.50;85.30;;;;;;2097056;28;20176;-71
2022/03/08 04:53:27;;;;;;;10.47;5.80;;;-5.50;85.00;;;;;;2097581;28;20178;-71
2022/03/08 04:54:28;;;;;;;11.10;5.87;;;-5.50;84.80;;;;;;2097789;28;20209;-71
2022/03/08 04:55:29;;;;;;;11.83;6.73;;;-5.50;84.60;;;;;;2096235;28;20191;-71
2022/03/08 04:56:29;;;;;;;10.93;6.60;;;-5.50;84.60;;;;;;2097109;28;20636;-72
2022/03/08 04:57:30;;;;;;;14.97;6.60;;;-5.60;84.80;;;;;;2097716;28;20186;-71
2022/03/08 04:58:31;;;;;;;42.63;20.37;;;-5.60;84.50;;;;;;2088491;28;20209;-71
2022/03/08 04:59:32;;;;;;;16.27;7.90;;;-5.60;84.80;;;;;;2088738;28;20183;-71
2022/03/08 05:00:32;;;;;;;12.87;6.60;;;-5.70;86.20;;;;;;2097143;28;20189;-71
2022/03/08 05:01:33;;;;;;;11.00;6.00;;;-5.70;86.30;;;;;;2088608;28;20222;-71
2022/03/08 05:02:34;;;;;;;12.43;6.03;;;-5.70;86.40;;;;;;2097124;28;20269;-71
2022/03/08 05:03:34;;;;;;;11.83;6.00;;;-5.60;86.10;;;;;;2097806;28;20187;-71
2022/03/08 05:04:35;;;;;;;11.77;5.97;;;-5.60;85.60;;;;;;2097035;28;20295;-71
2022/03/08 05:05:38;;;;;;;9.57;6.07;;;-5.50;85.60;;;;;;2088182;28;20185;-71
2022/03/08 05:06:38;;;;;;;9.23;5.80;;;-5.50;84.90;;;;;;2089005;28;20711;-71
2022/03/08 05:07:40;;;;;;;12.33;6.33;;;-5.50;84.60;;;;;;2097183;28;20187;-71
2022/03/08 05:08:41;;;;;;;13.70;6.90;;;-5.50;84.40;;;;;;2096853;28;20207;-71
2022/03/08 05:09:42;;;;;;;13.47;6.63;;;-5.50;84.40;;;;;;2088360;28;20659;-71
2022/03/08 05:10:42;;;;;;;13.10;7.70;;;-5.50;84.40;;;;;;2096606;28;20626;-71
2022/03/08 05:11:44;;;;;;;12.00;6.30;;;-5.50;84.40;;;;;;2093479;28;20184;-71
2022/03/08 05:12:45;;;;;;;12.30;6.97;;;-5.40;83.70;;;;;;2088301;28;20180;-71
2022/03/08 05:13:45;;;;;;;15.27;9.57;;;-5.40;83.40;;;;;;2089093;28;20648;-71
2022/03/08 05:14:46;;;;;;;12.60;7.10;;;-5.40;83.70;;;;;;2088245;28;20184;-71